Latest Coastal Weather Observations for Avalon

IDV60701

Issued at 11:31 pm EDT Friday 24 February 2017 (issued every 10 minutes, with the page automatically refreshed every 10 minutes)

About coastal observations | Map of coastal stations | Coastal observations for VIC | Marine services | Other Formats
Station Details ID: 087113 Name: AVALON AIRPORT Lat: -38.03 Lon: 144.48 Height: 10.6 m
Data from the previous 72 hours. | See also: Recent months at Avalon
Date/Time
EDT
Temp
°C
Wind Pressure Rain since
9am
mm
Weather Cloud Vis
km
Sea
Height
m
Swell
Dir  Spd
kts
Gust
kts
hPa Trend Height
m
Period
s
Dir
24/11:30pm 14.9 SSW 10 12 1025.6 - 0.0 - - 10 - - - -
24/11:00pm 15.7 S 10 14 1025.7 - 0.0 - Partly cloudy 10 - - - -
24/10:30pm 16.4 SSW 10 14 1025.8 - 0.0 - Partly cloudy 10 - - - -
24/10:00pm 16.0 SSW 12 15 1026.0 - 0.0 - Partly cloudy 10 - - - -
24/09:30pm 16.6 SSW 9 12 1026.0 - 0.0 - Partly cloudy 10 - - - -
24/09:00pm 16.2 SSW 11 16 1025.8 - 0.0 - Cloudy 10 - - - -
24/08:30pm 15.9 SSW 11 14 1025.5 - 0.0 - Partly cloudy 10 - - - -
24/08:00pm 16.2 S 12 15 1025.3 - 0.0 - - 10 - - - -
24/07:30pm 17.7 SSW 14 18 1025.2 - 0.0 - Partly cloudy 10 - - - -
24/07:00pm 18.0 SSW 13 17 1025.1 - 0.0 - Partly cloudy 10 - - - -
24/06:30pm 19.0 SSW 17 22 1025.0 - 0.0 - Partly cloudy 10 - - - -
24/06:00pm 19.4 S 17 22 1024.8 - 0.0 - Mostly cloudy 10 - - - -
24/05:30pm 19.3 S 17 21 1024.8 - 0.0 - Cloudy 10 - - - -
24/05:00pm 19.2 S 17 21 1024.8 - 0.0 - Cloudy 10 - - - -
24/04:30pm 19.4 S 17 21 1024.8 - 0.0 - Cloudy 10 - - - -
24/04:00pm 19.4 S 16 21 1024.8 - 0.0 - Cloudy 10 - - - -
24/03:30pm 19.8 S 18 23 1025.0 - 0.0 - Cloudy 10 - - - -
24/03:00pm 19.6 S 14 19 1025.1 - 0.0 - Cloudy 10 - - - -
24/02:30pm 19.6 S 15 19 1025.3 - 0.0 - Cloudy 10 - - - -
24/02:00pm 19.5 S 13 16 1025.4 - 0.0 - Cloudy 10 - - - -
24/01:30pm 18.9 SSW 12 17 1025.5 - 0.0 - Cloudy 10 - - - -
24/01:00pm 18.7 SSW 13 17 1025.5 - 0.0 - Cloudy 10 - - - -
24/12:30pm 18.4 S 13 16 1025.6 - 0.0 - Cloudy 10 - - - -
24/12:00pm 18.0 S 12 15 1025.7 - 0.0 - Cloudy 10 - - - -
24/11:30am 18.6 S 11 16 1025.7 - 0.0 - Cloudy 10 - - - -
24/11:00am 18.8 SSW 11 17 1025.7 - 0.0 - Cloudy 10 - - - -
24/10:30am 18.0 SW 11 15 1025.5 - 0.0 - Cloudy 10 - - - -
24/10:00am 18.5 SSW 12 18 1025.3 - 0.0 - - 10 - - - -
24/09:30am 18.1 SSW 13 18 1025.0 - 0.0 - Partly cloudy 10 - - - -
24/09:00am 17.1 SW 11 15 1024.6 - 0.0 - Mostly clear 10 - - - -
24/08:30am 16.3 SW 8 11 1024.5 - 0.0 - Partly cloudy 10 - - - -
24/08:00am 15.2 WSW 6 9 1024.2 - 0.0 - Partly cloudy 10 - - - -
24/07:30am 14.6 WSW 7 11 1023.9 - 0.0 - Partly cloudy 10 - - - -
24/07:00am 14.8 SW 9 11 1023.6 - 0.0 - Cloudy 10 - - - -
24/06:30am 15.1 SW 7 8 1023.4 - 0.0 - Cloudy 10 - - - -
24/06:00am 15.1 SW 6 8 1023.0 - 0.0 - Mostly cloudy 10 - - - -
24/05:30am 15.3 SW 7 9 1022.8 - 0.0 - Partly cloudy - - - - -
24/05:00am 15.1 SW 7 9 1022.6 - 0.0 - Cloudy - - - - -
24/04:30am 15.2 SW 6 7 1022.6 - 0.0 - Partly cloudy - - - - -
24/04:00am 14.8 SSW 6 7 1022.7 - 0.0 - Cloudy - - - - -
24/03:40am 14.7 SSW 7 8 1022.7 - 0.0 - Partly cloudy - - - - -
24/03:30am 14.6 SSW 9 12 1022.7 - 0.0 - Partly cloudy - - - - -
24/03:01am 15.9 SW 9 13 1023.0 - 0.0 - Partly cloudy - - - - -
24/03:00am 15.9 SW 10 13 1023.0 - 0.0 - Cloudy - - - - -
24/02:40am 16.3 SSW 11 15 1023.0 - 0.0 - Partly cloudy 10 - - - -
24/02:30am 16.3 SSW 11 14 1023.0 - 0.0 - Partly cloudy - - - - -
24/02:05am 16.4 SSW 9 13 1023.0 - 0.0 - Partly cloudy - - - - -
24/02:00am 16.4 SSW 9 11 1023.0 - 0.0 - Partly cloudy - - - - -
24/01:56am 16.4 SSW 9 11 1022.9 - 0.0 - Partly cloudy - - - - -
24/01:32am 16.4 SSW 7 9 1023.2 - 0.0 - Partly cloudy - - - - -
24/01:30am 16.4 SSW 7 9 1023.2 - 0.0 - Partly cloudy - - - - -
24/01:00am 16.5 SSW 10 13 1023.2 - 0.0 - Cloudy - - - - -
24/12:30am 16.6 SSW 11 14 1023.1 - 0.0 - Cloudy - - - - -
24/12:00am 16.8 SSW 12 16 1023.0 - 0.0 - Cloudy - - - - -
 
Date/Time
EDT
Temp
°C
Wind Pressure Rain since
9am
mm
Weather Cloud Vis
km
Sea
Height
m
Swell
Dir  Spd
kts
Gust
kts
hPa Trend Height
m
Period
s
Dir
23/11:30pm 17.0 SSW 11 13 1022.9 - 0.0 - Partly cloudy - - - - -
23/11:14pm 17.1 SSW 10 13 1022.9 - 0.0 - Partly cloudy - - - - -
23/11:00pm 17.2 SSW 9 11 1022.9 - 0.0 - Cloudy - - - - -
23/10:51pm 17.2 SSW 10 12 1022.9 - 0.0 - Partly cloudy - - - - -
23/10:30pm 17.3 SSW 11 13 1022.8 - 0.0 - Partly cloudy - - - - -
23/10:00pm 17.5 SSW 10 14 1022.6 - 0.0 - Cloudy - - - - -
23/09:30pm 17.5 SSW 11 15 1022.2 - 0.0 - Cloudy - - - - -
23/09:00pm 17.4 S 13 18 1021.7 - 0.0 - Mostly cloudy - - - - -
23/08:30pm 17.7 S 15 19 1021.0 - 0.0 - Partly cloudy - - - - -
23/08:09pm 17.6 S 14 19 1020.5 - 0.0 - Partly cloudy - - - - -
23/08:00pm 17.9 S 16 20 1020.3 - 0.0 - Partly cloudy - - - - -
23/07:30pm 19.0 S 17 21 1019.7 - 0.0 - - 10 - - - -
23/07:00pm 19.8 S 17 21 1019.4 - 0.0 - - 10 - - - -
23/06:30pm 20.6 S 19 23 1019.3 - 0.0 - Partly cloudy 10 - - - -
23/06:00pm 21.8 S 16 19 1018.7 - 0.0 - Mostly clear 10 - - - -
23/05:30pm 23.5 S 12 15 1018.3 - 0.0 - - 10 - - - -
23/05:00pm 23.7 SSW 11 15 1017.9 - 0.0 - - 10 - - - -
23/04:30pm 24.5 S 11 16 1017.8 - 0.0 - Partly cloudy 10 - - - -
23/04:00pm 23.4 S 11 15 1017.8 - 0.0 - Partly cloudy 10 - - - -
23/03:30pm 25.6 WSW 10 15 1017.8 - 0.0 - Partly cloudy 10 - - - -
23/03:00pm 24.6 WSW 11 17 1017.9 - 0.0 - Mostly cloudy 10 - - - -
23/02:30pm 24.6 W 12 18 1018.0 - 0.0 - Cloudy 10 - - - -
23/02:00pm 24.4 WNW 12 18 1018.0 - 0.0 - Partly cloudy 10 - - - -
23/01:30pm 23.0 WSW 13 20 1018.1 - 0.0 - Cloudy 10 - - - -
23/01:00pm 23.0 WNW 12 16 1018.1 - 0.0 - Cloudy 10 - - - -
23/12:30pm 22.4 W 11 14 1018.2 - 0.0 - Cloudy 10 - - - -
23/12:00pm 22.5 W 12 18 1018.2 - 0.0 - Mostly cloudy 10 - - - -
23/11:30am 21.0 W 14 19 1018.3 - 0.0 - Cloudy 10 - - - -
23/11:00am 20.8 WNW 15 19 1018.1 - 0.0 - Cloudy 10 - - - -
23/10:30am 20.5 W 11 15 1017.8 - 0.0 - Cloudy 10 - - - -
23/10:00am 20.7 WNW 14 19 1017.4 - 0.0 - Cloudy 10 - - - -
23/09:30am 19.7 WNW 12 16 1017.1 - 0.0 - Cloudy 10 - - - -
23/09:00am 18.6 WNW 6 9 1016.9 - 0.0 - Cloudy 10 - - - -
23/08:30am 17.9 NW 6 7 1016.6 - 0.0 - Partly cloudy 10 - - - -
23/08:00am 17.2 W 7 11 1016.4 - 0.0 - Partly cloudy 10 - - - -
23/07:30am 16.2 NW 6 11 1015.6 - 0.0 - Partly cloudy 10 - - - -
23/07:00am 14.7 NNW 7 11 1014.9 - 0.0 - - 10 - - - -
23/06:30am 14.6 N 6 6 1014.3 - 0.0 - - 10 - - - -
23/06:00am 14.8 NNW 7 7 1013.8 - 0.0 - - 10 - - - -
23/05:30am 16.2 NNW 4 5 1013.5 - 0.0 - - 10 - - - -
23/05:00am 15.1 N 4 6 1013.2 - 0.0 - - 10 - - - -
23/04:30am 16.1 N 1 5 1012.9 - 0.0 - - 10 - - - -
23/04:00am 16.3 CALM 0 0 1012.7 - 0.0 - - 10 - - - -
23/03:30am 16.9 WNW 4 5 1012.7 - 0.0 - - 10 - - - -
23/03:00am 17.5 NW 7 9 1012.4 - 0.0 - Mostly cloudy 10 - - - -
23/02:30am 16.4 NE 6 8 1012.4 - 0.0 - - 10 - - - -
23/02:00am 17.7 CALM 0 0 1012.4 - 0.0 - - 10 - - - -
23/01:30am 17.7 NNW 4 5 1012.2 - 0.0 - - 10 - - - -
23/01:00am 18.0 NW 7 7 1012.0 - 0.0 - - 10 - - - -
23/12:30am 18.3 NW 4 5 1011.5 - 0.0 - - 10 - - - -
23/12:00am 19.0 W 9 11 1011.1 - 0.0 - Cloudy 10 - - - -
 
Date/Time
EDT
Temp
°C
Wind Pressure Rain since
9am
mm
Weather Cloud Vis
km
Sea
Height
m
Swell
Dir  Spd
kts
Gust
kts
hPa Trend Height
m
Period
s
Dir
22/11:30pm 19.7 W 11 15 1011.1 - 0.0 - - 10 - - - -
22/11:00pm 19.6 WSW 4 6 1010.7 - 0.0 - - 10 - - - -
22/10:30pm 19.5 SSW 9 13 1010.3 - 0.0 - - 10 - - - -
22/10:00pm 21.5 WSW 19 27 1009.8 - 0.0 - - 10 - - - -
22/09:50pm 22.5 W 16 27 1009.3 - 0.0 - - 10 - - - -
22/09:45pm 23.6 W 14 23 1009.0 - 0.0 - - 10 - - - -
22/09:30pm 26.7 NNE 9 11 1007.3 - 0.0 - - 10 - - - -
22/09:00pm 27.7 N 10 11 1007.0 - 0.0 - - 10 - - - -
22/08:30pm 28.5 N 9 11 1006.9 - 0.0 - - 10 - - - -
22/08:00pm 30.3 N 9 13 1006.8 - 0.0 - - 10 - - - -
22/07:30pm 32.8 N 14 19 1006.6 - 0.0 - - 10 - - - -
22/07:00pm 33.9 N 18 24 1006.6 - 0.0 - - 10 - - - -
22/06:31pm 34.1 N 18 28 1006.8 - 0.0 - - 10 - - - -
22/06:30pm 34.1 N 17 24 1006.8 - 0.0 - - 10 - - - -
22/06:00pm 33.8 N 20 30 1007.0 - 0.0 - - 10 - - - -
22/05:30pm 34.6 NNW 22 34 1007.4 - 0.0 - - 10 - - - -
22/05:07pm 34.9 N 18 29 1007.5 - 0.0 - - 10 - - - -
22/05:00pm 35.2 N 18 25 1007.8 - 0.0 - - 10 - - - -
22/04:34pm 34.4 N 17 29 1007.9 - 0.0 - - 10 - - - -
22/04:30pm 34.0 N 17 25 1007.9 - 0.0 - - 10 - - - -
22/04:00pm 33.7 NNW 18 26 1008.7 - 0.0 - - 10 - - - -
22/03:30pm 33.7 N 16 22 1009.0 - 0.0 - - 10 - - - -
22/03:15pm 32.9 N 17 28 1009.2 - 0.0 - - 10 - - - -
22/03:00pm 33.6 N 17 25 1009.2 - 0.0 - - 10 - - - -
22/02:30pm 32.4 NNE 15 25 1009.5 - 0.0 - - 10 - - - -
22/02:00pm 31.6 NNE 16 23 1010.8 - 0.0 - - 10 - - - -
22/01:30pm 31.3 NNW 15 23 1011.2 - 0.0 - - 10 - - - -
22/01:00pm 31.4 N 14 20 1011.9 - 0.0 - - 10 - - - -
22/12:30pm 30.1 NNE 13 20 1012.4 - 0.0 - - 10 - - - -
22/12:00pm 29.6 N 17 23 1013.0 - 0.0 - - 10 - - - -
22/11:30am 28.0 N 17 22 1013.6 - 0.0 - - 10 - - - -
22/11:00am 27.8 N 17 25 1013.8 - 0.0 - - 10 - - - -
22/10:30am 26.2 NNE 13 19 1014.3 - 0.0 - - 10 - - - -
22/10:00am 23.2 NNE 8 11 1014.8 - 0.0 - - 10 - - - -
22/09:30am 19.8 NE 8 10 1014.9 - 0.0 - - 10 - - - -
22/09:00am 15.1 E 7 8 1015.0 - 0.0 - - 10 - - - -
22/08:30am 14.0 NE 7 8 1015.2 - 0.0 - - 10 - - - -
22/08:00am 11.9 ENE 6 9 1015.1 - 0.0 - - 10 - - - -
22/07:30am 9.8 NE 8 9 1014.9 - 0.0 - - 10 - - - -
22/07:00am 8.6 NE 7 8 1014.9 - 0.0 - - - - - - -
22/06:30am 10.9 ENE 7 9 1014.8 - 0.0 - - - - - - -
22/06:00am 10.3 ENE 5 6 1014.8 - 0.0 - - - - - - -
22/05:30am 10.0 ENE 6 7 1014.7 - 0.0 - - - - - - -
22/05:00am 11.2 NNE 5 7 1015.0 - 0.0 - - - - - - -
22/04:30am 11.3 NNE 6 7 1015.2 - 0.0 - - - - - - -
22/04:00am 10.7 N 1 5 1015.5 - 0.0 - - - - - - -
22/03:30am 11.2 N 5 5 1015.7 - 0.0 - - - - - - -
22/03:00am 11.5 CALM 0 0 1016.0 - 0.0 - - - - - - -
22/02:30am 11.6 NNW 3 4 1016.3 - 0.0 - - - - - - -
22/02:00am 12.4 NNW 4 4 1016.5 - 0.0 - - - - - - -
22/01:30am 11.9 W 4 5 1017.1 - 0.0 - - - - - - -
22/01:00am 12.9 NW 4 5 1017.5 - 0.0 - - - - - - -
22/12:30am 13.2 NNE 3 4 1018.0 - 0.0 - - - - - - -
22/12:00am 13.3 NNE 3 5 1018.3 - 0.0 - - 10 - - - -

Other Formats:

Comma delimited format used in spreadsheet applications
http://www.bom.gov.au/fwo/IDV60701/IDV60701.94854.axf

JavaScript Object Notation format (JSON) in row-major order
http://www.bom.gov.au/fwo/IDV60701/IDV60701.94854.json